Time;durP1;ratioP1;P1;durP2;ratioP2;P2;SDS_P1;SDS_P2;PMS_P1;PMS_P2;Temp;Humidity;BMP_temperature;BMP_pressure;BME280_temperature;BME280_humidity;BME280_pressure;Samples;Min_cycle;Max_cycle;Signal;HPM_P1;HPM_P2
2023/03/14 00:04:36;;;;;;;11.50;4.30;;;;;;;9.48;57.04;98413.00;30622352;28;96693;-64
2023/03/14 00:19:37;;;;;;;5.60;3.30;;;;;;;9.53;57.25;98431.00;30620539;28;97220;-63
2023/03/14 00:34:37;;;;;;;7.45;3.30;;;;;;;9.44;57.20;98403.81;30618407;28;96928;-64
2023/03/14 00:49:37;;;;;;;7.75;3.35;;;;;;;9.54;57.37;98393.59;30617215;28;96763;-64
2023/03/14 01:04:39;;;;;;;9.75;4.43;;;;;;;9.71;57.23;98468.41;30616629;28;96682;-62
2023/03/14 01:19:39;;;;;;;5.83;3.20;;;;;;;9.92;57.18;98432.78;30614762;28;96727;-62
2023/03/14 01:34:40;;;;;;;5.03;2.70;;;;;;;10.25;56.08;98412.38;30613981;28;96668;-63
2023/03/14 01:49:40;;;;;;;5.55;2.70;;;;;;;10.41;55.12;98356.00;30612271;28;96633;-64
2023/03/14 02:04:41;;;;;;;5.32;3.13;;;;;;;10.31;55.37;98339.69;30611771;28;97192;-64
2023/03/14 02:19:54;;;;;;;8.03;3.77;;;;;;;9.95;56.90;98287.88;30610380;28;96872;-64
2023/03/14 02:34:57;;;;;;;5.87;3.60;;;;;;;9.45;58.24;98273.38;30610041;28;96734;-64
2023/03/14 02:50:04;;;;;;;5.37;3.30;;;;;;;9.31;58.80;98247.88;30610136;28;97713;-63
2023/03/14 03:05:05;;;;;;;8.03;2.77;;;;;;;9.17;59.12;98214.41;30627412;28;96651;-64
2023/03/14 03:20:08;;;;;;;3.03;2.13;;;;;;;9.78;58.59;98182.00;30626142;28;96690;-64
2023/03/14 03:35:09;;;;;;;3.93;1.60;;;;;;;10.06;56.82;98185.28;30624593;28;97488;-63
2023/03/14 03:50:10;;;;;;;3.83;2.30;;;;;;;9.92;57.00;98142.03;30622050;28;96607;-63
2023/03/14 04:05:11;;;;;;;3.47;2.30;;;;;;;9.91;57.10;98135.06;30620982;28;97386;-63
2023/03/14 04:20:12;;;;;;;8.77;3.67;;;;;;;10.08;57.25;98112.22;30619804;28;97027;-63
2023/03/14 04:35:14;;;;;;;3.95;1.85;;;;;;;10.38;56.52;98066.34;30617459;28;96780;-63
2023/03/14 04:50:14;;;;;;;5.17;2.83;;;;;;;10.42;55.78;98104.78;30616437;28;96825;-62
2023/03/14 05:05:15;;;;;;;4.13;2.35;;;;;;;10.25;55.63;98103.69;30614703;28;97356;-62
2023/03/14 05:20:16;;;;;;;3.47;2.30;;;;;;;10.16;56.11;98063.25;30609794;28;96955;-63
2023/03/14 05:35:16;;;;;;;4.87;2.50;;;;;;;9.90;57.50;98048.38;30609414;28;97095;-62
2023/03/14 05:50:17;;;;;;;6.82;3.75;;;;;;;9.69;58.36;98084.94;30564742;28;99603;-63
2023/03/14 06:05:17;;;;;;;5.65;2.88;;;;;;;9.62;58.97;98063.72;30603029;28;97442;-64
2023/03/14 06:20:18;;;;;;;5.80;3.03;;;;;;;9.74;59.26;98071.78;30582195;28;97389;-63
2023/03/14 06:35:18;;;;;;;12.57;3.30;;;;;;;10.05;58.33;98115.31;30603130;28;96882;-66
2023/03/14 06:50:19;;;;;;;6.30;3.20;;;;;;;10.11;58.36;98093.16;30594909;28;97997;-67
2023/03/14 07:05:19;;;;;;;9.27;3.08;;;;;;;10.17;57.75;98096.81;30589461;28;98697;-69
2023/03/14 07:20:20;;;;;;;6.47;2.85;;;;;;;10.13;57.46;98135.53;30591444;28;97420;-68
2023/03/14 07:35:21;;;;;;;5.57;3.13;;;;;;;10.07;57.98;98137.19;30592107;28;98233;-65
2023/03/14 07:50:22;;;;;;;12.00;4.40;;;;;;;10.02;58.07;98115.78;30594339;28;98303;-65
2023/03/14 08:05:22;;;;;;;22.02;12.55;;;;;;;9.97;58.05;98099.66;30598003;28;97173;-67
2023/03/14 08:20:26;;;;;;;4.32;2.42;;;;;;;9.77;58.72;98110.44;30585958;28;96989;-66
2023/03/14 08:35:26;;;;;;;;;;;;;;;9.53;59.82;98142.09;30586662;28;97071;-67
2023/03/14 08:50:27;;;;;;;7.97;4.05;;;;;;;9.28;61.05;98168.56;30594703;28;97529;-68
2023/03/14 09:05:27;;;;;;;8.23;3.15;;;;;;;9.60;61.75;98165.97;30592454;28;97189;-64
2023/03/14 09:20:27;;;;;;;5.00;2.80;;;;;;;9.79;60.78;98172.19;30614509;28;96617;-67
2023/03/14 09:35:28;;;;;;;6.35;3.63;;;;;;;9.86;60.01;98180.94;30603411;28;98327;-69
2023/03/14 09:50:44;;;;;;;10.48;3.95;;;;;;;9.81;60.81;98215.34;30606298;28;96936;-68
2023/03/14 10:05:45;;;;;;;7.67;3.80;;;;;;;9.99;61.25;98222.59;30627204;28;97491;-68
2023/03/14 10:20:48;;;;;;;6.38;4.00;;;;;;;10.45;61.42;98221.47;30633016;28;97004;-66
2023/03/14 10:36:06;;;;;;;8.70;3.77;;;;;;;10.92;60.80;98205.06;30624684;28;97339;-65
2023/03/14 10:51:10;;;;;;;7.50;3.93;;;;;;;11.23;60.66;98186.47;30623905;28;96771;-65
2023/03/14 11:06:17;;;;;;;7.40;3.33;;;;;;;11.93;60.40;98183.28;30624118;28;97035;-64
2023/03/14 11:21:23;;;;;;;10.43;4.13;;;;;;;12.36;60.15;98171.53;30623561;28;97100;-70
2023/03/14 11:36:52;;;;;;;6.50;2.27;;;;;;;13.79;56.31;98144.47;30622083;28;97443;-73
2023/03/14 11:51:59;;;;;;;7.33;2.97;;;;;;;13.90;55.72;98151.66;30624840;28;98040;-68
2023/03/14 12:07:07;;;;;;;6.33;3.37;;;;;;;13.12;56.29;98149.38;30621460;28;96898;-71
2023/03/14 12:22:15;;;;;;;7.50;3.23;;;;;;;12.40;57.87;98137.16;30623508;28;96790;-70
2023/03/14 12:37:21;;;;;;;6.63;4.03;;;;;;;11.93;59.02;98124.59;30618012;28;97074;-71
2023/03/14 12:52:32;;;;;;;5.90;3.53;;;;;;;11.84;59.39;98116.09;30606121;28;96665;-70
2023/03/14 13:07:59;;;;;;;6.77;3.47;;;;;;;11.76;60.55;98103.06;30633763;28;96649;-72
2023/03/14 13:22:59;;;;;;;5.30;3.33;;;;;;;11.72;60.07;98096.56;30600255;28;96877;-68
2023/03/14 13:38:01;;;;;;;5.53;3.28;;;;;;;11.78;60.84;98095.66;30603989;28;96798;-68
2023/03/14 13:53:01;;;;;;;4.23;2.70;;;;;;;11.57;62.06;98093.53;30608485;28;99663;-68
2023/03/14 14:08:04;;;;;;;5.45;3.88;;;;;;;11.49;62.46;98098.13;30601896;28;96919;-71
2023/03/14 14:23:13;;;;;;;9.03;4.40;;;;;;;11.44;62.43;98095.34;30608110;28;97317;-71
2023/03/14 14:38:17;;;;;;;5.67;3.87;;;;;;;11.58;62.40;98100.50;30666340;28;96698;-71
2023/03/14 14:53:35;;;;;;;9.07;4.63;;;;;;;11.77;62.01;98083.38;30686695;28;97722;-70
2023/03/14 15:08:37;;;;;;;8.77;3.80;;;;;;;12.24;61.61;98071.94;30672925;28;97683;-71
2023/03/14 15:23:37;;;;;;;4.37;3.37;;;;;;;12.88;60.00;98063.13;30667912;28;96757;-71
2023/03/14 15:38:37;;;;;;;8.20;4.03;;;;;;;12.70;60.00;98058.75;30677431;28;96945;-70
2023/03/14 15:53:38;;;;;;;8.43;3.00;;;;;;;12.56;59.83;98058.22;30626241;28;96850;-71
2023/03/14 16:08:38;;;;;;;3.25;1.63;;;;;;;12.44;59.64;98060.88;30610511;28;97174;-71
2023/03/14 16:23:39;;;;;;;3.20;1.60;;;;;;;12.31;58.65;98071.81;30606897;28;97219;-71
2023/03/14 16:38:42;;;;;;;3.43;1.50;;;;;;;12.01;58.44;98062.91;30619039;28;98917;-72
2023/03/14 16:53:44;;;;;;;3.33;1.60;;;;;;;11.60;58.20;98077.88;30605474;28;97121;-71
2023/03/14 17:08:44;;;;;;;7.80;2.83;;;;;;;10.95;59.91;98106.03;30599872;28;97171;-70
2023/03/14 17:23:44;;;;;;;9.05;3.83;;;;;;;10.39;61.54;98129.19;30594336;28;97245;-71
2023/03/14 17:38:45;;;;;;;8.43;4.10;;;;;;;10.01;63.25;98145.25;30595014;28;97725;-72
2023/03/14 17:53:45;;;;;;;8.15;4.63;;;;;;;9.86;64.11;98150.88;30588055;28;97484;-70
2023/03/14 18:08:46;;;;;;;6.97;4.38;;;;;;;9.73;64.64;98165.91;30593781;28;97071;-72
2023/03/14 18:23:47;;;;;;;10.52;5.55;;;;;;;9.48;64.55;98166.63;30604599;28;97298;-73
2023/03/14 18:38:49;;;;;;;10.47;5.20;;;;;;;9.25;65.44;98163.69;30618262;28;96747;-74
2023/03/14 18:53:50;;;;;;;7.20;4.43;;;;;;;9.09;65.92;98160.50;30616747;28;97426;-73
2023/03/14 19:08:50;;;;;;;14.17;7.07;;;;;;;8.91;66.48;98184.25;30615087;28;97255;-75
2023/03/14 19:23:51;;;;;;;11.45;6.53;;;;;;;8.80;67.45;98189.19;30616071;28;97172;-77
2023/03/14 19:38:52;;;;;;;13.73;6.70;;;;;;;8.89;67.90;98218.97;30613591;28;97392;-76
2023/03/14 19:53:53;;;;;;;6.07;4.07;;;;;;;9.10;68.68;98284.31;30608493;28;98945;-75
2023/03/14 20:08:53;;;;;;;1.85;0.80;;;;;;;7.18;71.43;98454.03;30616119;28;97529;-65
2023/03/14 20:23:53;;;;;;;2.92;0.70;;;;;;;6.42;73.23;98525.91;30620193;28;96734;-65
2023/03/14 20:38:54;;;;;;;0.65;0.38;;;;;;;5.56;72.95;98584.38;30611410;28;96685;-72
2023/03/14 20:53:54;;;;;;;0.30;0.30;;;;;;;4.47;71.95;98645.00;30608028;28;97037;-71
2023/03/14 21:08:55;;;;;;;0.60;0.50;;;;;;;3.80;72.13;98751.44;30604650;28;96882;-71
2023/03/14 21:23:55;;;;;;;3.10;0.50;;;;;;;3.41;72.47;98825.72;30611494;28;96675;-69
2023/03/14 21:38:55;;;;;;;0.38;0.38;;;;;;;3.13;72.20;98871.47;30612871;28;96662;-71
2023/03/14 21:53:56;;;;;;;2.42;0.60;;;;;;;2.98;72.42;98920.34;30611750;28;96787;-69
2023/03/14 22:08:56;;;;;;;1.20;0.70;;;;;;;2.87;72.28;98972.22;30651399;28;96904;-72
2023/03/14 22:23:57;;;;;;;5.35;1.38;;;;;;;2.83;72.37;99030.53;30651164;28;97301;-69
2023/03/14 22:38:57;;;;;;;1.30;1.00;;;;;;;2.85;72.32;99058.34;30648801;28;96715;-69
2023/03/14 22:53:58;;;;;;;3.17;1.30;;;;;;;2.75;72.46;99089.16;30648019;28;97341;-69
2023/03/14 23:08:58;;;;;;;4.30;1.92;;;;;;;2.68;72.40;99102.06;30641530;28;96717;-70
2023/03/14 23:23:58;;;;;;;6.18;2.55;;;;;;;2.67;72.21;99131.94;30626424;28;96705;-68
2023/03/14 23:38:59;;;;;;;6.63;2.45;;;;;;;2.65;72.44;99167.25;30625497;28;96710;-70
2023/03/14 23:53:59;;;;;;;3.83;2.55;;;;;;;2.61;72.20;99213.22;30623857;28;97388;-70
